sensor_id;sensor_type;location;lat;lon;timestamp;P1;durP1;ratioP1;P2;durP2;ratioP2
47772;SDS011;33534;51.028;13.716;2023-05-23T00:02:08;7.03;;;5.10;;
47772;SDS011;33534;51.028;13.716;2023-05-23T00:04:37;8.85;;;6.15;;
47772;SDS011;33534;51.028;13.716;2023-05-23T00:07:03;8.68;;;5.32;;
47772;SDS011;33534;51.028;13.716;2023-05-23T00:09:29;9.75;;;5.45;;
47772;SDS011;33534;51.028;13.716;2023-05-23T00:11:55;6.85;;;4.85;;
47772;SDS011;33534;51.028;13.716;2023-05-23T00:14:21;12.45;;;5.65;;
47772;SDS011;33534;51.028;13.716;2023-05-23T00:16:48;9.98;;;6.15;;
47772;SDS011;33534;51.028;13.716;2023-05-23T00:19:16;8.70;;;5.75;;
47772;SDS011;33534;51.028;13.716;2023-05-23T00:21:44;9.32;;;5.60;;
47772;SDS011;33534;51.028;13.716;2023-05-23T00:24:13;11.30;;;5.55;;
47772;SDS011;33534;51.028;13.716;2023-05-23T00:26:42;6.47;;;4.72;;
47772;SDS011;33534;51.028;13.716;2023-05-23T00:29:08;11.57;;;6.13;;
47772;SDS011;33534;51.028;13.716;2023-05-23T00:31:39;10.88;;;6.53;;
47772;SDS011;33534;51.028;13.716;2023-05-23T00:34:06;9.60;;;6.55;;
47772;SDS011;33534;51.028;13.716;2023-05-23T00:36:32;12.98;;;7.72;;
47772;SDS011;33534;51.028;13.716;2023-05-23T00:39:01;13.70;;;7.95;;
47772;SDS011;33534;51.028;13.716;2023-05-23T00:41:27;14.25;;;8.35;;
47772;SDS011;33534;51.028;13.716;2023-05-23T00:43:54;15.25;;;8.93;;
47772;SDS011;33534;51.028;13.716;2023-05-23T00:46:20;26.90;;;11.88;;
47772;SDS011;33534;51.028;13.716;2023-05-23T00:48:46;26.77;;;13.00;;
47772;SDS011;33534;51.028;13.716;2023-05-23T00:51:12;28.05;;;11.55;;
47772;SDS011;33534;51.028;13.716;2023-05-23T00:53:38;23.35;;;13.50;;
47772;SDS011;33534;51.028;13.716;2023-05-23T00:56:04;30.33;;;14.48;;
47772;SDS011;33534;51.028;13.716;2023-05-23T00:58:30;22.75;;;14.95;;
47772;SDS011;33534;51.028;13.716;2023-05-23T01:00:57;23.15;;;14.60;;
47772;SDS011;33534;51.028;13.716;2023-05-23T01:03:23;26.65;;;15.25;;
47772;SDS011;33534;51.028;13.716;2023-05-23T01:05:52;22.50;;;15.45;;
47772;SDS011;33534;51.028;13.716;2023-05-23T01:08:20;24.63;;;16.38;;
47772;SDS011;33534;51.028;13.716;2023-05-23T01:10:46;23.85;;;16.42;;
47772;SDS011;33534;51.028;13.716;2023-05-23T01:15:54;23.20;;;15.43;;
47772;SDS011;33534;51.028;13.716;2023-05-23T01:20:49;19.65;;;14.07;;
47772;SDS011;33534;51.028;13.716;2023-05-23T01:26:12;22.10;;;15.82;;
47772;SDS011;33534;51.028;13.716;2023-05-23T01:28:45;21.13;;;16.13;;
47772;SDS011;33534;51.028;13.716;2023-05-23T01:31:11;18.70;;;15.00;;
47772;SDS011;33534;51.028;13.716;2023-05-23T01:33:39;21.73;;;17.40;;
47772;SDS011;33534;51.028;13.716;2023-05-23T01:36:05;18.15;;;14.68;;
47772;SDS011;33534;51.028;13.716;2023-05-23T01:38:32;27.42;;;20.13;;
47772;SDS011;33534;51.028;13.716;2023-05-23T01:40:58;32.00;;;20.80;;
47772;SDS011;33534;51.028;13.716;2023-05-23T01:43:24;28.15;;;19.38;;
47772;SDS011;33534;51.028;13.716;2023-05-23T01:45:51;26.88;;;17.67;;
47772;SDS011;33534;51.028;13.716;2023-05-23T01:48:18;22.20;;;15.20;;
47772;SDS011;33534;51.028;13.716;2023-05-23T01:50:45;19.58;;;14.23;;
47772;SDS011;33534;51.028;13.716;2023-05-23T01:53:14;26.33;;;15.18;;
47772;SDS011;33534;51.028;13.716;2023-05-23T01:55:41;18.55;;;14.48;;
47772;SDS011;33534;51.028;13.716;2023-05-23T01:58:07;16.88;;;14.07;;
47772;SDS011;33534;51.028;13.716;2023-05-23T02:00:33;18.50;;;14.80;;
47772;SDS011;33534;51.028;13.716;2023-05-23T02:02:59;21.20;;;14.15;;
47772;SDS011;33534;51.028;13.716;2023-05-23T02:05:25;21.73;;;14.25;;
47772;SDS011;33534;51.028;13.716;2023-05-23T02:07:51;16.70;;;13.00;;
47772;SDS011;33534;51.028;13.716;2023-05-23T02:10:18;16.42;;;13.63;;
47772;SDS011;33534;51.028;13.716;2023-05-23T02:12:44;15.15;;;12.95;;
47772;SDS011;33534;51.028;13.716;2023-05-23T02:15:10;21.15;;;14.73;;
47772;SDS011;33534;51.028;13.716;2023-05-23T02:17:36;18.13;;;13.95;;
47772;SDS011;33534;51.028;13.716;2023-05-23T02:20:03;19.90;;;15.27;;
47772;SDS011;33534;51.028;13.716;2023-05-23T02:22:30;20.40;;;15.93;;
47772;SDS011;33534;51.028;13.716;2023-05-23T02:24:56;23.63;;;16.98;;
47772;SDS011;33534;51.028;13.716;2023-05-23T02:27:22;19.13;;;15.90;;
47772;SDS011;33534;51.028;13.716;2023-05-23T02:29:48;26.67;;;16.85;;
47772;SDS011;33534;51.028;13.716;2023-05-23T02:32:14;19.75;;;17.13;;
47772;SDS011;33534;51.028;13.716;2023-05-23T02:34:40;21.77;;;16.70;;
47772;SDS011;33534;51.028;13.716;2023-05-23T02:37:06;18.30;;;15.02;;
47772;SDS011;33534;51.028;13.716;2023-05-23T02:39:34;20.13;;;16.05;;
47772;SDS011;33534;51.028;13.716;2023-05-23T02:42:00;20.48;;;14.93;;
47772;SDS011;33534;51.028;13.716;2023-05-23T02:44:26;18.27;;;14.88;;
47772;SDS011;33534;51.028;13.716;2023-05-23T02:46:52;20.52;;;15.50;;
47772;SDS011;33534;51.028;13.716;2023-05-23T02:49:18;19.00;;;14.48;;
47772;SDS011;33534;51.028;13.716;2023-05-23T02:51:44;23.92;;;16.42;;
47772;SDS011;33534;51.028;13.716;2023-05-23T02:54:10;22.38;;;16.23;;
47772;SDS011;33534;51.028;13.716;2023-05-23T02:56:36;17.02;;;14.15;;
47772;SDS011;33534;51.028;13.716;2023-05-23T02:59:02;19.42;;;13.75;;
47772;SDS011;33534;51.028;13.716;2023-05-23T03:01:28;17.35;;;13.43;;
47772;SDS011;33534;51.028;13.716;2023-05-23T03:03:54;17.58;;;13.07;;
47772;SDS011;33534;51.028;13.716;2023-05-23T03:06:20;16.95;;;13.25;;
47772;SDS011;33534;51.028;13.716;2023-05-23T03:08:46;16.42;;;12.60;;
47772;SDS011;33534;51.028;13.716;2023-05-23T03:11:13;18.17;;;12.18;;
47772;SDS011;33534;51.028;13.716;2023-05-23T03:13:39;18.88;;;11.88;;
47772;SDS011;33534;51.028;13.716;2023-05-23T03:16:05;11.57;;;10.40;;
47772;SDS011;33534;51.028;13.716;2023-05-23T03:18:31;15.45;;;10.88;;
47772;SDS011;33534;51.028;13.716;2023-05-23T03:20:57;14.38;;;10.32;;
47772;SDS011;33534;51.028;13.716;2023-05-23T03:23:23;13.50;;;10.25;;
47772;SDS011;33534;51.028;13.716;2023-05-23T03:25:49;11.30;;;9.82;;
47772;SDS011;33534;51.028;13.716;2023-05-23T03:28:15;10.20;;;9.10;;
47772;SDS011;33534;51.028;13.716;2023-05-23T03:30:41;17.33;;;9.40;;
47772;SDS011;33534;51.028;13.716;2023-05-23T03:33:07;11.50;;;8.63;;
47772;SDS011;33534;51.028;13.716;2023-05-23T03:35:33;12.05;;;9.48;;
47772;SDS011;33534;51.028;13.716;2023-05-23T03:37:59;12.30;;;9.55;;
47772;SDS011;33534;51.028;13.716;2023-05-23T03:40:25;10.65;;;9.57;;
47772;SDS011;33534;51.028;13.716;2023-05-23T03:43:04;14.50;;;9.38;;
47772;SDS011;33534;51.028;13.716;2023-05-23T03:45:30;12.05;;;10.18;;
47772;SDS011;33534;51.028;13.716;2023-05-23T03:47:57;11.65;;;9.85;;
47772;SDS011;33534;51.028;13.716;2023-05-23T03:50:23;12.45;;;9.82;;
47772;SDS011;33534;51.028;13.716;2023-05-23T03:52:49;11.75;;;9.40;;
47772;SDS011;33534;51.028;13.716;2023-05-23T03:55:15;14.57;;;10.20;;
47772;SDS011;33534;51.028;13.716;2023-05-23T03:57:46;10.45;;;9.13;;
47772;SDS011;33534;51.028;13.716;2023-05-23T04:00:12;12.13;;;9.60;;
47772;SDS011;33534;51.028;13.716;2023-05-23T04:02:38;17.85;;;10.77;;
47772;SDS011;33534;51.028;13.716;2023-05-23T04:05:04;10.90;;;9.63;;
47772;SDS011;33534;51.028;13.716;2023-05-23T04:07:30;15.18;;;10.65;;
47772;SDS011;33534;51.028;13.716;2023-05-23T04:09:58;14.15;;;10.15;;
47772;SDS011;33534;51.028;13.716;2023-05-23T04:12:24;13.07;;;10.25;;
47772;SDS011;33534;51.028;13.716;2023-05-23T04:14:50;12.23;;;10.32;;
47772;SDS011;33534;51.028;13.716;2023-05-23T04:17:17;12.70;;;10.57;;
47772;SDS011;33534;51.028;13.716;2023-05-23T04:19:43;13.70;;;10.23;;
47772;SDS011;33534;51.028;13.716;2023-05-23T04:22:09;11.65;;;9.90;;
47772;SDS011;33534;51.028;13.716;2023-05-23T04:24:35;10.55;;;9.27;;
47772;SDS011;33534;51.028;13.716;2023-05-23T04:27:01;12.23;;;10.18;;
47772;SDS011;33534;51.028;13.716;2023-05-23T04:29:27;9.82;;;8.75;;
47772;SDS011;33534;51.028;13.716;2023-05-23T04:31:55;11.20;;;9.48;;
47772;SDS011;33534;51.028;13.716;2023-05-23T04:34:21;10.45;;;7.57;;
47772;SDS011;33534;51.028;13.716;2023-05-23T04:36:47;11.95;;;7.53;;
47772;SDS011;33534;51.028;13.716;2023-05-23T04:39:14;9.60;;;8.38;;
47772;SDS011;33534;51.028;13.716;2023-05-23T04:41:40;8.95;;;8.05;;
47772;SDS011;33534;51.028;13.716;2023-05-23T04:44:08;11.05;;;8.40;;
47772;SDS011;33534;51.028;13.716;2023-05-23T04:46:34;13.57;;;9.20;;
47772;SDS011;33534;51.028;13.716;2023-05-23T04:49:01;11.27;;;8.75;;
47772;SDS011;33534;51.028;13.716;2023-05-23T04:51:28;12.00;;;8.48;;
47772;SDS011;33534;51.028;13.716;2023-05-23T04:53:54;9.95;;;8.70;;
47772;SDS011;33534;51.028;13.716;2023-05-23T04:56:20;13.48;;;8.90;;
47772;SDS011;33534;51.028;13.716;2023-05-23T04:58:46;10.90;;;8.32;;
47772;SDS011;33534;51.028;13.716;2023-05-23T05:01:13;9.95;;;8.63;;
47772;SDS011;33534;51.028;13.716;2023-05-23T05:03:39;9.93;;;7.10;;
47772;SDS011;33534;51.028;13.716;2023-05-23T05:06:05;12.38;;;8.30;;
47772;SDS011;33534;51.028;13.716;2023-05-23T05:08:31;10.70;;;6.97;;
47772;SDS011;33534;51.028;13.716;2023-05-23T05:10:57;10.38;;;7.13;;
47772;SDS011;33534;51.028;13.716;2023-05-23T05:13:23;8.77;;;7.57;;
47772;SDS011;33534;51.028;13.716;2023-05-23T05:15:50;13.93;;;7.72;;
47772;SDS011;33534;51.028;13.716;2023-05-23T05:18:16;8.40;;;7.18;;
47772;SDS011;33534;51.028;13.716;2023-05-23T05:20:42;14.23;;;7.85;;
47772;SDS011;33534;51.028;13.716;2023-05-23T05:23:08;8.70;;;6.45;;
47772;SDS011;33534;51.028;13.716;2023-05-23T05:25:35;7.53;;;6.70;;
47772;SDS011;33534;51.028;13.716;2023-05-23T05:28:02;10.35;;;7.10;;
47772;SDS011;33534;51.028;13.716;2023-05-23T05:30:31;8.68;;;6.43;;
47772;SDS011;33534;51.028;13.716;2023-05-23T05:32:59;10.65;;;6.53;;
47772;SDS011;33534;51.028;13.716;2023-05-23T05:35:26;7.50;;;6.28;;
47772;SDS011;33534;51.028;13.716;2023-05-23T05:37:52;13.18;;;7.68;;
47772;SDS011;33534;51.028;13.716;2023-05-23T05:40:18;16.92;;;6.68;;
47772;SDS011;33534;51.028;13.716;2023-05-23T05:42:44;8.02;;;7.22;;
47772;SDS011;33534;51.028;13.716;2023-05-23T05:45:10;10.77;;;8.15;;
47772;SDS011;33534;51.028;13.716;2023-05-23T05:47:36;9.65;;;8.75;;
47772;SDS011;33534;51.028;13.716;2023-05-23T05:50:03;12.75;;;8.68;;
47772;SDS011;33534;51.028;13.716;2023-05-23T05:52:29;11.00;;;9.23;;
47772;SDS011;33534;51.028;13.716;2023-05-23T05:54:55;12.65;;;11.30;;
47772;SDS011;33534;51.028;13.716;2023-05-23T05:57:22;14.30;;;11.93;;
47772;SDS011;33534;51.028;13.716;2023-05-23T05:59:48;16.08;;;12.20;;
47772;SDS011;33534;51.028;13.716;2023-05-23T06:02:14;18.58;;;14.27;;
47772;SDS011;33534;51.028;13.716;2023-05-23T06:04:40;16.83;;;14.57;;
47772;SDS011;33534;51.028;13.716;2023-05-23T06:07:05;15.73;;;14.00;;
47772;SDS011;33534;51.028;13.716;2023-05-23T06:09:31;16.10;;;14.48;;
47772;SDS011;33534;51.028;13.716;2023-05-23T06:11:58;19.60;;;15.73;;
47772;SDS011;33534;51.028;13.716;2023-05-23T06:14:25;18.42;;;16.25;;
47772;SDS011;33534;51.028;13.716;2023-05-23T06:16:51;19.52;;;16.58;;
47772;SDS011;33534;51.028;13.716;2023-05-23T06:19:17;18.63;;;16.73;;
47772;SDS011;33534;51.028;13.716;2023-05-23T06:21:43;20.27;;;18.20;;
47772;SDS011;33534;51.028;13.716;2023-05-23T06:24:09;19.05;;;17.05;;
47772;SDS011;33534;51.028;13.716;2023-05-23T06:26:35;25.98;;;17.55;;
47772;SDS011;33534;51.028;13.716;2023-05-23T06:29:01;17.50;;;15.88;;
47772;SDS011;33534;51.028;13.716;2023-05-23T06:31:27;18.90;;;16.98;;
47772;SDS011;33534;51.028;13.716;2023-05-23T06:33:53;21.70;;;17.10;;
47772;SDS011;33534;51.028;13.716;2023-05-23T06:36:19;19.20;;;16.58;;
47772;SDS011;33534;51.028;13.716;2023-05-23T06:38:46;16.20;;;14.55;;
47772;SDS011;33534;51.028;13.716;2023-05-23T06:41:12;17.85;;;16.05;;
47772;SDS011;33534;51.028;13.716;2023-05-23T06:43:38;16.50;;;14.75;;
47772;SDS011;33534;51.028;13.716;2023-05-23T06:46:04;17.83;;;14.15;;
47772;SDS011;33534;51.028;13.716;2023-05-23T06:48:30;16.60;;;14.93;;
47772;SDS011;33534;51.028;13.716;2023-05-23T06:50:56;18.42;;;14.55;;
47772;SDS011;33534;51.028;13.716;2023-05-23T06:53:22;15.43;;;13.48;;
47772;SDS011;33534;51.028;13.716;2023-05-23T06:55:48;18.77;;;14.32;;
47772;SDS011;33534;51.028;13.716;2023-05-23T06:58:14;15.48;;;13.52;;
47772;SDS011;33534;51.028;13.716;2023-05-23T07:00:40;16.52;;;13.40;;
47772;SDS011;33534;51.028;13.716;2023-05-23T07:03:06;16.55;;;13.57;;
47772;SDS011;33534;51.028;13.716;2023-05-23T07:05:32;13.30;;;11.82;;
47772;SDS011;33534;51.028;13.716;2023-05-23T07:08:00;12.50;;;10.73;;
47772;SDS011;33534;51.028;13.716;2023-05-23T07:10:26;21.80;;;12.63;;
47772;SDS011;33534;51.028;13.716;2023-05-23T07:12:52;13.05;;;11.10;;
47772;SDS011;33534;51.028;13.716;2023-05-23T07:15:18;13.52;;;10.60;;
47772;SDS011;33534;51.028;13.716;2023-05-23T07:17:44;17.50;;;10.45;;
47772;SDS011;33534;51.028;13.716;2023-05-23T07:20:10;13.68;;;9.82;;
47772;SDS011;33534;51.028;13.716;2023-05-23T07:22:37;11.73;;;9.80;;
47772;SDS011;33534;51.028;13.716;2023-05-23T07:25:03;17.63;;;9.35;;
47772;SDS011;33534;51.028;13.716;2023-05-23T07:27:29;9.95;;;8.75;;
47772;SDS011;33534;51.028;13.716;2023-05-23T07:29:55;10.50;;;8.73;;
47772;SDS011;33534;51.028;13.716;2023-05-23T07:32:21;10.18;;;8.32;;
47772;SDS011;33534;51.028;13.716;2023-05-23T07:34:47;13.07;;;9.25;;
47772;SDS011;33534;51.028;13.716;2023-05-23T07:37:13;10.65;;;9.02;;
47772;SDS011;33534;51.028;13.716;2023-05-23T07:39:40;12.68;;;9.57;;
47772;SDS011;33534;51.028;13.716;2023-05-23T07:42:06;11.13;;;9.73;;
47772;SDS011;33534;51.028;13.716;2023-05-23T07:44:32;14.35;;;8.63;;
47772;SDS011;33534;51.028;13.716;2023-05-23T07:46:58;11.57;;;8.07;;
47772;SDS011;33534;51.028;13.716;2023-05-23T07:49:24;9.75;;;8.43;;
47772;SDS011;33534;51.028;13.716;2023-05-23T07:51:50;14.23;;;8.15;;
47772;SDS011;33534;51.028;13.716;2023-05-23T07:54:16;10.00;;;8.15;;
47772;SDS011;33534;51.028;13.716;2023-05-23T07:56:42;10.52;;;8.07;;
47772;SDS011;33534;51.028;13.716;2023-05-23T07:59:09;11.52;;;7.70;;
47772;SDS011;33534;51.028;13.716;2023-05-23T08:01:35;9.10;;;7.38;;
47772;SDS011;33534;51.028;13.716;2023-05-23T08:04:01;8.50;;;6.85;;
47772;SDS011;33534;51.028;13.716;2023-05-23T08:06:27;8.13;;;6.97;;
47772;SDS011;33534;51.028;13.716;2023-05-23T08:08:53;8.65;;;6.97;;
47772;SDS011;33534;51.028;13.716;2023-05-23T08:11:19;16.20;;;7.70;;
47772;SDS011;33534;51.028;13.716;2023-05-23T08:13:44;7.30;;;6.35;;
47772;SDS011;33534;51.028;13.716;2023-05-23T08:16:10;12.70;;;8.35;;
47772;SDS011;33534;51.028;13.716;2023-05-23T08:18:36;10.05;;;8.70;;
47772;SDS011;33534;51.028;13.716;2023-05-23T08:21:02;14.02;;;8.43;;
47772;SDS011;33534;51.028;13.716;2023-05-23T08:23:28;10.45;;;8.85;;
47772;SDS011;33534;51.028;13.716;2023-05-23T08:25:54;12.07;;;9.05;;
47772;SDS011;33534;51.028;13.716;2023-05-23T08:28:21;9.27;;;8.02;;
47772;SDS011;33534;51.028;13.716;2023-05-23T08:30:47;9.05;;;8.15;;
47772;SDS011;33534;51.028;13.716;2023-05-23T08:33:12;10.80;;;9.07;;
47772;SDS011;33534;51.028;13.716;2023-05-23T08:35:38;12.07;;;9.07;;
47772;SDS011;33534;51.028;13.716;2023-05-23T08:38:05;16.17;;;9.23;;
47772;SDS011;33534;51.028;13.716;2023-05-23T08:40:31;10.13;;;9.07;;
47772;SDS011;33534;51.028;13.716;2023-05-23T08:42:57;9.45;;;8.18;;
47772;SDS011;33534;51.028;13.716;2023-05-23T08:45:23;10.57;;;8.48;;
47772;SDS011;33534;51.028;13.716;2023-05-23T08:47:50;10.73;;;8.30;;
47772;SDS011;33534;51.028;13.716;2023-05-23T08:50:16;10.40;;;8.30;;
47772;SDS011;33534;51.028;13.716;2023-05-23T08:52:44;12.25;;;8.57;;
47772;SDS011;33534;51.028;13.716;2023-05-23T08:55:11;11.23;;;9.30;;
47772;SDS011;33534;51.028;13.716;2023-05-23T08:57:37;11.57;;;9.88;;
47772;SDS011;33534;51.028;13.716;2023-05-23T09:00:08;13.88;;;10.07;;
47772;SDS011;33534;51.028;13.716;2023-05-23T09:02:35;12.32;;;10.98;;
47772;SDS011;33534;51.028;13.716;2023-05-23T09:05:02;15.75;;;12.38;;
47772;SDS011;33534;51.028;13.716;2023-05-23T09:07:28;16.10;;;12.57;;
47772;SDS011;33534;51.028;13.716;2023-05-23T09:09:54;15.70;;;12.48;;
47772;SDS011;33534;51.028;13.716;2023-05-23T09:12:20;14.02;;;12.63;;
47772;SDS011;33534;51.028;13.716;2023-05-23T09:14:47;13.55;;;12.15;;
47772;SDS011;33534;51.028;13.716;2023-05-23T09:17:19;16.05;;;13.57;;
47772;SDS011;33534;51.028;13.716;2023-05-23T09:19:46;17.45;;;14.18;;
47772;SDS011;33534;51.028;13.716;2023-05-23T09:22:12;18.42;;;16.35;;
47772;SDS011;33534;51.028;13.716;2023-05-23T09:24:38;17.45;;;15.70;;
47772;SDS011;33534;51.028;13.716;2023-05-23T09:27:05;18.33;;;16.33;;
47772;SDS011;33534;51.028;13.716;2023-05-23T09:29:38;20.60;;;18.23;;
47772;SDS011;33534;51.028;13.716;2023-05-23T09:32:13;21.23;;;17.48;;
47772;SDS011;33534;51.028;13.716;2023-05-23T09:35:01;23.20;;;20.75;;
47772;SDS011;33534;51.028;13.716;2023-05-23T09:37:36;24.10;;;20.65;;
47772;SDS011;33534;51.028;13.716;2023-05-23T09:40:08;28.85;;;22.33;;
47772;SDS011;33534;51.028;13.716;2023-05-23T09:42:44;28.73;;;24.88;;
47772;SDS011;33534;51.028;13.716;2023-05-23T09:45:11;29.55;;;25.98;;
47772;SDS011;33534;51.028;13.716;2023-05-23T09:47:37;30.75;;;26.20;;
47772;SDS011;33534;51.028;13.716;2023-05-23T09:50:03;30.35;;;24.33;;
47772;SDS011;33534;51.028;13.716;2023-05-23T09:52:38;35.45;;;24.83;;
47772;SDS011;33534;51.028;13.716;2023-05-23T09:55:07;30.55;;;25.33;;
47772;SDS011;33534;51.028;13.716;2023-05-23T09:57:34;28.73;;;23.27;;
47772;SDS011;33534;51.028;13.716;2023-05-23T10:00:06;27.63;;;23.10;;
47772;SDS011;33534;51.028;13.716;2023-05-23T10:05:13;24.58;;;20.13;;
47772;SDS011;33534;51.028;13.716;2023-05-23T10:07:50;30.45;;;18.52;;
47772;SDS011;33534;51.028;13.716;2023-05-23T10:10:19;24.83;;;16.17;;
47772;SDS011;33534;51.028;13.716;2023-05-23T10:12:51;20.10;;;15.45;;
47772;SDS011;33534;51.028;13.716;2023-05-23T10:15:48;19.35;;;14.68;;
47772;SDS011;33534;51.028;13.716;2023-05-23T10:18:19;18.65;;;14.70;;
47772;SDS011;33534;51.028;13.716;2023-05-23T10:20:52;16.27;;;12.38;;
47772;SDS011;33534;51.028;13.716;2023-05-23T10:23:19;15.98;;;11.63;;
47772;SDS011;33534;51.028;13.716;2023-05-23T10:25:48;14.20;;;10.85;;
47772;SDS011;33534;51.028;13.716;2023-05-23T10:28:18;15.13;;;10.10;;
47772;SDS011;33534;51.028;13.716;2023-05-23T10:30:57;15.27;;;9.95;;
47772;SDS011;33534;51.028;13.716;2023-05-23T10:33:27;13.48;;;9.25;;
47772;SDS011;33534;51.028;13.716;2023-05-23T10:36:06;14.15;;;9.52;;
47772;SDS011;33534;51.028;13.716;2023-05-23T10:38:43;10.68;;;9.38;;
47772;SDS011;33534;51.028;13.716;2023-05-23T10:41:14;14.15;;;10.50;;
47772;SDS011;33534;51.028;13.716;2023-05-23T10:43:43;12.27;;;10.33;;
47772;SDS011;33534;51.028;13.716;2023-05-23T10:46:18;11.35;;;9.32;;
47772;SDS011;33534;51.028;13.716;2023-05-23T10:48:51;12.18;;;9.27;;
47772;SDS011;33534;51.028;13.716;2023-05-23T10:51:22;11.13;;;9.68;;
47772;SDS011;33534;51.028;13.716;2023-05-23T10:53:52;11.05;;;9.85;;
47772;SDS011;33534;51.028;13.716;2023-05-23T10:56:23;10.93;;;9.20;;
47772;SDS011;33534;51.028;13.716;2023-05-23T10:58:52;9.73;;;8.63;;
47772;SDS011;33534;51.028;13.716;2023-05-23T11:01:19;10.00;;;8.80;;
47772;SDS011;33534;51.028;13.716;2023-05-23T11:09:15;11.18;;;8.52;;
47772;SDS011;33534;51.028;13.716;2023-05-23T11:11:59;12.80;;;9.40;;
47772;SDS011;33534;51.028;13.716;2023-05-23T11:19:37;12.15;;;8.52;;
47772;SDS011;33534;51.028;13.716;2023-05-23T11:22:06;13.90;;;8.43;;
47772;SDS011;33534;51.028;13.716;2023-05-23T11:24:51;10.30;;;8.20;;
47772;SDS011;33534;51.028;13.716;2023-05-23T11:27:31;13.75;;;8.27;;
47772;SDS011;33534;51.028;13.716;2023-05-23T11:32:37;15.70;;;8.68;;
47772;SDS011;33534;51.028;13.716;2023-05-23T11:35:07;13.93;;;9.07;;
47772;SDS011;33534;51.028;13.716;2023-05-23T11:37:34;10.23;;;8.27;;
47772;SDS011;33534;51.028;13.716;2023-05-23T11:42:45;10.48;;;8.95;;
47772;SDS011;33534;51.028;13.716;2023-05-23T11:45:11;13.23;;;8.38;;
47772;SDS011;33534;51.028;13.716;2023-05-23T11:47:40;11.00;;;8.73;;
47772;SDS011;33534;51.028;13.716;2023-05-23T11:50:06;12.60;;;10.15;;
47772;SDS011;33534;51.028;13.716;2023-05-23T11:52:33;14.68;;;9.07;;
47772;SDS011;33534;51.028;13.716;2023-05-23T11:54:59;10.88;;;8.52;;
47772;SDS011;33534;51.028;13.716;2023-05-23T11:57:26;9.90;;;8.30;;
47772;SDS011;33534;51.028;13.716;2023-05-23T11:59:52;15.52;;;9.32;;
47772;SDS011;33534;51.028;13.716;2023-05-23T12:02:20;11.75;;;9.40;;
47772;SDS011;33534;51.028;13.716;2023-05-23T12:04:47;11.13;;;9.05;;
47772;SDS011;33534;51.028;13.716;2023-05-23T12:07:19;8.88;;;7.72;;
47772;SDS011;33534;51.028;13.716;2023-05-23T12:09:45;12.60;;;8.23;;
47772;SDS011;33534;51.028;13.716;2023-05-23T12:12:12;10.32;;;7.75;;
47772;SDS011;33534;51.028;13.716;2023-05-23T12:14:38;8.38;;;7.47;;
47772;SDS011;33534;51.028;13.716;2023-05-23T12:17:17;9.93;;;8.52;;
47772;SDS011;33534;51.028;13.716;2023-05-23T12:19:46;9.95;;;8.77;;
47772;SDS011;33534;51.028;13.716;2023-05-23T12:22:15;8.45;;;7.65;;
47772;SDS011;33534;51.028;13.716;2023-05-23T12:24:47;9.98;;;7.82;;
47772;SDS011;33534;51.028;13.716;2023-05-23T12:27:14;8.50;;;7.70;;
47772;SDS011;33534;51.028;13.716;2023-05-23T12:29:48;11.40;;;7.85;;
47772;SDS011;33534;51.028;13.716;2023-05-23T12:32:17;9.73;;;7.78;;
47772;SDS011;33534;51.028;13.716;2023-05-23T12:34:43;8.52;;;7.28;;
47772;SDS011;33534;51.028;13.716;2023-05-23T12:37:11;10.80;;;8.35;;
47772;SDS011;33534;51.028;13.716;2023-05-23T12:39:38;8.18;;;6.85;;
47772;SDS011;33534;51.028;13.716;2023-05-23T12:42:10;8.68;;;7.00;;
47772;SDS011;33534;51.028;13.716;2023-05-23T12:47:39;11.50;;;9.80;;
47772;SDS011;33534;51.028;13.716;2023-05-23T12:50:06;10.45;;;8.20;;
47772;SDS011;33534;51.028;13.716;2023-05-23T12:52:32;10.50;;;7.38;;
47772;SDS011;33534;51.028;13.716;2023-05-23T12:55:03;9.57;;;7.43;;
47772;SDS011;33534;51.028;13.716;2023-05-23T12:57:30;8.35;;;7.55;;
47772;SDS011;33534;51.028;13.716;2023-05-23T12:59:59;7.65;;;6.80;;
47772;SDS011;33534;51.028;13.716;2023-05-23T13:02:26;8.00;;;7.18;;
47772;SDS011;33534;51.028;13.716;2023-05-23T13:08:11;11.40;;;8.60;;
47772;SDS011;33534;51.028;13.716;2023-05-23T13:10:40;9.18;;;8.23;;
47772;SDS011;33534;51.028;13.716;2023-05-23T13:13:41;13.52;;;9.02;;
47772;SDS011;33534;51.028;13.716;2023-05-23T13:16:45;10.32;;;8.07;;
47772;SDS011;33534;51.028;13.716;2023-05-23T13:28:26;15.13;;;8.70;;
47772;SDS011;33534;51.028;13.716;2023-05-23T13:40:18;11.65;;;8.35;;
47772;SDS011;33534;51.028;13.716;2023-05-23T13:46:10;12.43;;;10.23;;
47772;SDS011;33534;51.028;13.716;2023-05-23T14:04:11;10.05;;;7.47;;
47772;SDS011;33534;51.028;13.716;2023-05-23T14:07:18;8.15;;;7.25;;
47772;SDS011;33534;51.028;13.716;2023-05-23T14:13:16;7.50;;;6.30;;
47772;SDS011;33534;51.028;13.716;2023-05-23T14:15:51;7.35;;;5.95;;
47772;SDS011;33534;51.028;13.716;2023-05-23T14:18:29;7.18;;;5.85;;
47772;SDS011;33534;51.028;13.716;2023-05-23T14:24:08;5.82;;;5.22;;
47772;SDS011;33534;51.028;13.716;2023-05-23T14:26:59;6.80;;;4.78;;
47772;SDS011;33534;51.028;13.716;2023-05-23T14:32:42;7.03;;;4.82;;
47772;SDS011;33534;51.028;13.716;2023-05-23T14:35:35;3.55;;;3.00;;
47772;SDS011;33534;51.028;13.716;2023-05-23T14:38:04;5.30;;;3.00;;
47772;SDS011;33534;51.028;13.716;2023-05-23T14:40:53;3.70;;;2.85;;
47772;SDS011;33534;51.028;13.716;2023-05-23T14:43:26;6.13;;;3.38;;
47772;SDS011;33534;51.028;13.716;2023-05-23T14:46:03;5.20;;;3.25;;
47772;SDS011;33534;51.028;13.716;2023-05-23T15:19:52;7.93;;;4.95;;
47772;SDS011;33534;51.028;13.716;2023-05-23T15:22:27;5.45;;;4.70;;
47772;SDS011;33534;51.028;13.716;2023-05-23T15:25:21;8.30;;;5.55;;
47772;SDS011;33534;51.028;13.716;2023-05-23T15:27:51;9.98;;;5.25;;
47772;SDS011;33534;51.028;13.716;2023-05-23T15:30:22;7.90;;;5.13;;
47772;SDS011;33534;51.028;13.716;2023-05-23T15:33:03;10.07;;;5.43;;
47772;SDS011;33534;51.028;13.716;2023-05-23T15:35:55;5.35;;;4.85;;
47772;SDS011;33534;51.028;13.716;2023-05-23T15:38:45;5.40;;;4.85;;
47772;SDS011;33534;51.028;13.716;2023-05-23T15:41:16;5.80;;;4.75;;
47772;SDS011;33534;51.028;13.716;2023-05-23T15:44:15;7.50;;;4.88;;
47772;SDS011;33534;51.028;13.716;2023-05-23T15:46:50;9.23;;;5.25;;
47772;SDS011;33534;51.028;13.716;2023-05-23T15:49:19;5.00;;;4.50;;
47772;SDS011;33534;51.028;13.716;2023-05-23T15:51:55;5.90;;;4.32;;
47772;SDS011;33534;51.028;13.716;2023-05-23T15:57:40;4.65;;;4.20;;
47772;SDS011;33534;51.028;13.716;2023-05-23T16:00:11;4.32;;;3.90;;
47772;SDS011;33534;51.028;13.716;2023-05-23T16:05:39;10.35;;;3.40;;
47772;SDS011;33534;51.028;13.716;2023-05-23T16:08:05;4.82;;;3.47;;
47772;SDS011;33534;51.028;13.716;2023-05-23T16:13:28;3.95;;;3.55;;
47772;SDS011;33534;51.028;13.716;2023-05-23T16:15:54;3.40;;;3.10;;
47772;SDS011;33534;51.028;13.716;2023-05-23T16:18:26;3.65;;;3.35;;
47772;SDS011;33534;51.028;13.716;2023-05-23T16:20:55;5.00;;;4.50;;
47772;SDS011;33534;51.028;13.716;2023-05-23T16:23:24;7.43;;;4.38;;
47772;SDS011;33534;51.028;13.716;2023-05-23T16:25:56;5.28;;;4.50;;
47772;SDS011;33534;51.028;13.716;2023-05-23T16:28:25;5.65;;;5.13;;